Time;durP1;ratioP1;P1;durP2;ratioP2;P2;SDS_P1;SDS_P2;PMS_P1;PMS_P2;Temp;Humidity;BMP_temperature;BMP_pressure;BME280_temperature;BME280_humidity;BME280_pressure;Samples;Min_cycle;Max_cycle;Signal;HPM_P1;HPM_P2
2022/11/11 00:00:22;;;;;;;20.75;12.93;;;;;;;14.23;68.75;100049.03;5091582;28;20111;-48
2022/11/11 00:02:48;;;;;;;23.25;13.90;;;;;;;14.08;69.08;100047.28;5091540;28;20028;-48
2022/11/11 00:05:15;;;;;;;20.95;13.55;;;;;;;13.97;69.65;100055.72;5092840;28;20103;-48
2022/11/11 00:07:41;;;;;;;29.38;14.43;;;;;;;13.97;70.14;100059.16;5091376;28;20087;-48
2022/11/11 00:10:07;;;;;;;22.42;13.40;;;;;;;14.02;70.13;100057.78;5091400;28;20486;-48
2022/11/11 00:12:33;;;;;;;26.77;13.30;;;;;;;14.11;70.23;100060.09;5090951;28;20024;-48
2022/11/11 00:14:59;;;;;;;24.77;13.50;;;;;;;14.21;69.91;100056.34;5092687;28;20520;-48
2022/11/11 00:25:37;;;;;;;27.38;14.65;;;;;;;14.26;69.74;100054.72;5092771;28;20039;-48
2022/11/11 00:28:03;;;;;;;26.70;14.32;;;;;;;14.15;69.59;100060.56;5092349;28;20020;-48
2022/11/11 00:30:29;;;;;;;24.92;12.93;;;;;;;14.03;70.17;100059.44;5092355;28;20021;-48
2022/11/11 00:32:55;;;;;;;28.00;15.18;;;;;;;13.89;70.24;100059.28;5091096;28;20118;-48
2022/11/11 00:38:44;;;;;;;29.10;14.93;;;;;;;13.69;70.97;100056.44;5092602;28;20085;-47
2022/11/11 00:40:56;;;;;;;27.00;15.30;;;;;;;13.56;71.33;100061.56;5092074;28;20081;-48
2022/11/11 00:43:22;;;;;;;28.98;16.45;;;;;;;13.52;71.47;100061.13;5090873;28;20444;-48
2022/11/11 00:45:47;;;;;;;29.42;16.90;;;;;;;13.48;71.64;100064.31;5090802;28;20070;-48
2022/11/11 00:51:00;;;;;;;34.80;15.80;;;;;;;13.48;72.60;100069.59;5092110;28;20116;-48
2022/11/11 00:53:35;;;;;;;27.73;14.40;;;;;;;13.55;72.22;100070.50;5091903;28;20413;-48
2022/11/11 00:56:01;;;;;;;28.48;15.13;;;;;;;13.62;72.60;100070.56;5092038;28;20080;-48
2022/11/11 00:58:27;;;;;;;35.95;14.48;;;;;;;13.78;72.59;100065.88;5090691;28;20057;-47
2022/11/11 01:00:53;;;;;;;32.58;16.40;;;;;;;14.01;72.30;100072.81;5091932;28;20031;-48
2022/11/11 01:03:19;;;;;;;31.70;15.70;;;;;;;14.28;72.04;100079.13;5090686;28;20403;-48
2022/11/11 01:05:44;;;;;;;32.97;17.05;;;;;;;14.60;71.34;100079.63;5090610;28;20027;-48
2022/11/11 01:08:10;;;;;;;30.75;16.20;;;;;;;14.86;70.53;100070.25;5091818;28;20020;-48
2022/11/11 01:10:43;;;;;;;28.58;17.15;;;;;;;14.88;69.46;100070.88;5090521;28;20031;-48
2022/11/11 01:13:41;;;;;;;31.77;17.65;;;;;;;14.64;69.58;100066.84;5092155;28;20103;-47
2022/11/11 01:16:12;;;;;;;35.88;17.83;;;;;;;14.38;69.89;100076.16;5012871;28;20071;-48
2022/11/11 01:18:37;;;;;;;33.72;18.63;;;;;;;14.19;70.32;100070.53;5029424;28;20116;-48
2022/11/11 01:21:08;;;;;;;37.97;17.98;;;;;;;14.05;70.77;100078.53;5029432;28;20547;-48
2022/11/11 01:23:37;;;;;;;29.92;16.83;;;;;;;14.01;71.44;100083.38;5029086;28;20053;-47
2022/11/11 01:26:10;;;;;;;34.67;16.08;;;;;;;14.22;71.64;100074.59;5032106;28;20041;-47
2022/11/11 01:28:36;;;;;;;30.40;16.38;;;;;;;14.50;71.11;100077.28;5033371;28;20114;-48
2022/11/11 01:31:04;;;;;;;26.95;16.17;;;;;;;14.65;70.26;100071.94;5033305;28;20068;-47
2022/11/11 01:33:29;;;;;;;30.13;15.13;;;;;;;14.58;69.27;100074.53;5016686;28;20057;-47
2022/11/11 01:35:55;;;;;;;29.90;16.13;;;;;;;14.62;70.00;100079.44;5033270;28;20515;-48
2022/11/11 01:38:20;;;;;;;28.08;14.68;;;;;;;14.89;70.19;100075.13;5016674;28;20045;-48
2022/11/11 01:40:48;;;;;;;29.40;14.90;;;;;;;15.12;69.08;100073.03;5033235;28;20087;-48
2022/11/11 01:43:17;;;;;;;22.98;15.23;;;;;;;15.24;68.66;100070.66;5033171;28;20511;-47
2022/11/11 01:45:49;;;;;;;31.70;24.08;;;;;;;15.34;67.93;100070.28;5033133;28;20057;-48
2022/11/11 01:51:45;;;;;;;30.73;15.73;;;;;;;15.12;68.11;100075.69;4980953;28;20046;-48
2022/11/11 01:54:26;;;;;;;22.90;14.30;;;;;;;15.35;68.17;100080.69;5013364;28;20051;-48
2022/11/11 01:57:01;;;;;;;27.15;15.75;;;;;;;15.33;67.47;100076.59;4998100;28;20120;-47
2022/11/11 01:59:30;;;;;;;28.42;17.42;;;;;;;15.23;67.14;100070.84;5013218;28;20040;-47
2022/11/11 02:01:57;;;;;;;31.42;17.25;;;;;;;14.94;67.30;100078.03;5013163;28;20109;-48
2022/11/11 02:07:09;;;;;;;28.48;19.55;;;;;;;14.39;67.39;100078.63;5013038;28;20069;-47
2022/11/11 02:09:42;;;;;;;25.50;18.48;;;;;;;14.10;68.63;100082.22;5012876;28;20506;-48
2022/11/11 02:14:56;;;;;;;31.55;19.33;;;;;;;13.95;70.64;100095.47;5013172;28;20033;-48
2022/11/11 02:17:25;;;;;;;28.45;19.20;;;;;;;14.00;69.78;100089.63;4996282;28;20026;-48
2022/11/11 02:19:58;;;;;;;26.17;18.83;;;;;;;13.93;70.10;100094.84;5012680;28;20022;-48
2022/11/11 02:22:26;;;;;;;26.42;20.75;;;;;;;13.75;70.04;100105.81;5046123;28;20089;-48
2022/11/11 02:24:55;;;;;;;25.52;19.45;;;;;;;13.45;70.55;100105.06;5094899;28;20024;-48
2022/11/11 02:27:23;;;;;;;31.50;20.38;;;;;;;13.19;71.37;100108.13;5093593;28;20032;-48
2022/11/11 02:29:53;;;;;;;28.30;21.23;;;;;;;13.03;72.18;100110.97;5094711;28;20510;-48
2022/11/11 02:32:18;;;;;;;27.17;20.30;;;;;;;12.98;73.54;100125.50;5094665;28;20023;-48
2022/11/11 02:34:44;;;;;;;28.95;21.45;;;;;;;13.08;73.35;100119.97;5094601;28;20584;-48
2022/11/11 02:37:10;;;;;;;25.40;19.00;;;;;;;13.09;73.04;100112.88;5092871;28;20082;-48
2022/11/11 02:39:42;;;;;;;40.78;18.15;;;;;;;12.99;73.08;100121.03;5094522;28;20054;-47
2022/11/11 02:42:09;;;;;;;22.50;15.98;;;;;;;12.86;72.57;100123.47;5093279;28;20032;-48
2022/11/11 02:44:38;;;;;;;24.33;16.88;;;;;;;12.61;72.83;100125.50;5094412;28;20031;-48
2022/11/11 02:47:05;;;;;;;22.65;16.85;;;;;;;12.33;73.92;100126.88;5094331;28;20478;-48
2022/11/11 02:49:31;;;;;;;19.98;16.92;;;;;;;12.13;74.85;100115.19;5094326;28;20032;-48
2022/11/11 02:51:56;;;;;;;21.90;17.38;;;;;;;12.04;76.04;100113.59;5094227;28;20032;-48
2022/11/11 02:54:22;;;;;;;21.30;16.85;;;;;;;11.98;76.09;100112.50;5094237;28;20024;-48
2022/11/11 02:59:32;;;;;;;25.50;18.30;;;;;;;12.05;76.84;100117.88;5094445;28;20455;-47
2022/11/11 03:01:57;;;;;;;26.15;18.27;;;;;;;12.12;76.27;100130.16;5094074;28;20047;-48
2022/11/11 03:04:23;;;;;;;22.67;16.67;;;;;;;12.09;76.63;100127.03;5092729;28;20081;-48
2022/11/11 03:06:49;;;;;;;23.50;17.55;;;;;;;12.04;76.59;100132.84;5093880;28;20068;-48
2022/11/11 03:09:15;;;;;;;21.75;16.92;;;;;;;12.06;76.74;100127.41;5094170;28;20032;-48
2022/11/11 03:11:43;;;;;;;20.27;16.52;;;;;;;12.04;76.86;100127.56;5093920;28;20099;-48
2022/11/11 03:14:09;;;;;;;18.42;14.93;;;;;;;12.02;76.41;100129.56;5092573;28;20115;-48
2022/11/11 03:19:19;;;;;;;19.92;15.13;;;;;;;11.92;76.46;100139.50;5093810;28;20032;-48
2022/11/11 03:21:44;;;;;;;17.40;13.70;;;;;;;11.86;76.41;100137.53;5092393;28;20402;-48
2022/11/11 03:24:10;;;;;;;33.58;27.98;;;;;;;11.78;76.65;100133.94;5092200;28;20429;-48
2022/11/11 03:26:36;;;;;;;63.55;55.78;;;;;;;11.75;76.60;100146.59;5093553;28;20504;-48
2022/11/11 03:29:02;;;;;;;33.47;26.58;;;;;;;11.68;77.17;100148.28;5093460;28;20085;-48
2022/11/11 03:31:28;;;;;;;24.25;16.88;;;;;;;11.59;77.24;100150.16;5093443;28;20083;-48
2022/11/11 03:34:16;;;;;;;19.23;15.07;;;;;;;11.52;77.42;100149.19;5092160;28;20112;-48
2022/11/11 03:39:28;;;;;;;15.48;12.80;;;;;;;11.49;78.08;100150.34;5093640;28;20036;-48
2022/11/11 03:41:53;;;;;;;29.83;13.38;;;;;;;11.43;77.89;100150.19;5091983;28;20382;-48
2022/11/11 03:44:19;;;;;;;34.47;14.73;;;;;;;11.36;78.41;100147.41;5091938;28;20036;-48
2022/11/11 03:46:45;;;;;;;21.70;13.70;;;;;;;11.38;78.73;100151.50;5091722;28;20446;-48
2022/11/11 03:49:10;;;;;;;15.55;12.75;;;;;;;11.42;78.68;100151.19;5092510;28;20051;-48
2022/11/11 03:51:36;;;;;;;14.55;11.95;;;;;;;11.44;78.57;100154.47;5093127;28;20498;-48
2022/11/11 03:54:01;;;;;;;15.60;13.13;;;;;;;11.39;78.38;100155.78;5093063;28;20016;-48
2022/11/11 03:56:27;;;;;;;15.25;12.57;;;;;;;11.38;78.11;100162.03;5093055;28;20020;-48
2022/11/11 03:58:52;;;;;;;18.50;12.20;;;;;;;11.37;78.84;100159.59;5092994;28;20171;-48
2022/11/11 04:12:14;;;;;;;18.08;12.70;;;;;;;11.66;79.24;100169.50;5092771;28;20517;-48
2022/11/11 04:17:24;;;;;;;16.77;12.40;;;;;;;11.92;77.53;100157.91;5092930;28;20162;-48
2022/11/11 04:22:39;;;;;;;19.20;15.38;;;;;;;11.96;77.73;100175.81;5092366;28;20094;-48
2022/11/11 04:29:27;;;;;;;19.20;14.07;;;;;;;12.12;76.73;100193.31;5092671;28;20026;-48
2022/11/11 04:30:34;;;;;;;19.58;14.02;;;;;;;12.12;76.80;100192.50;5092416;28;20456;-48
2022/11/11 04:33:00;;;;;;;18.95;14.35;;;;;;;12.22;76.83;100192.28;5092401;28;20028;-48
2022/11/11 04:35:25;;;;;;;20.17;15.68;;;;;;;12.41;77.26;100194.44;5091022;28;20055;-48
2022/11/11 04:41:02;;;;;;;19.90;13.85;;;;;;;12.55;76.23;100204.22;5091006;28;20035;-48
2022/11/11 04:43:21;;;;;;;26.17;15.52;;;;;;;12.83;76.14;100206.31;5092236;28;20035;-48
2022/11/11 04:45:46;;;;;;;24.60;14.55;;;;;;;13.14;75.59;100193.03;5092152;28;20028;-48
2022/11/11 04:48:12;;;;;;;18.77;14.77;;;;;;;13.47;74.66;100191.91;5092054;28;20028;-48
2022/11/11 04:50:42;;;;;;;21.67;14.90;;;;;;;13.48;73.41;100183.84;5092375;28;20490;-48
2022/11/11 04:53:11;;;;;;;16.85;13.75;;;;;;;13.42;73.46;100189.00;5107817;28;20024;-48
2022/11/11 04:58:29;;;;;;;16.95;13.32;;;;;;;13.10;72.73;100188.28;5092202;28;20146;-48
2022/11/11 05:00:55;;;;;;;16.75;13.95;;;;;;;12.96;73.25;100185.47;5090701;28;20028;-48
2022/11/11 05:03:24;;;;;;;19.58;15.20;;;;;;;12.86;73.29;100187.53;5090685;28;20110;-48
2022/11/11 05:09:00;;;;;;;17.27;14.18;;;;;;;12.80;73.95;100198.78;5091900;28;20030;-47
2022/11/11 05:11:34;;;;;;;20.58;15.18;;;;;;;12.75;73.94;100196.66;5092149;28;20047;-47
2022/11/11 05:22:40;;;;;;;23.60;13.83;;;;;;;13.08;74.53;100214.00;5091844;28;20182;-48
2022/11/11 05:25:28;;;;;;;16.33;14.13;;;;;;;13.29;73.49;100206.25;5091693;28;20028;-48
2022/11/11 05:27:56;;;;;;;22.52;14.35;;;;;;;13.20;72.74;100207.31;5090930;28;20106;-48
2022/11/11 05:30:23;;;;;;;18.00;14.05;;;;;;;13.11;73.02;100208.41;5090344;28;20071;-47
2022/11/11 05:32:49;;;;;;;20.10;15.45;;;;;;;13.04;73.19;100216.22;5090360;28;20025;-48
2022/11/11 05:35:16;;;;;;;26.80;17.77;;;;;;;13.02;73.17;100218.19;5091586;28;20028;-48
2022/11/11 05:37:42;;;;;;;15.57;13.20;;;;;;;12.99;73.13;100218.53;5091637;28;20023;-48
2022/11/11 05:40:09;;;;;;;16.50;14.50;;;;;;;12.96;73.02;100217.09;5090272;28;20016;-48
2022/11/11 05:42:35;;;;;;;17.85;14.98;;;;;;;12.94;73.42;100219.09;5090303;28;20020;-48
2022/11/11 05:45:00;;;;;;;21.38;15.95;;;;;;;12.84;73.06;100221.16;5090158;28;20024;-48
2022/11/11 05:47:26;;;;;;;21.00;13.50;;;;;;;12.77;73.63;100221.00;5090135;28;20024;-48
2022/11/11 05:49:52;;;;;;;18.75;13.30;;;;;;;12.77;73.68;100217.56;5090487;28;20028;-48
2022/11/11 05:52:18;;;;;;;17.33;13.13;;;;;;;12.86;74.06;100221.78;5091482;28;20145;-48
2022/11/11 05:54:44;;;;;;;19.17;15.88;;;;;;;12.90;73.63;100220.44;5090163;28;20401;-48
2022/11/11 05:57:10;;;;;;;24.35;16.30;;;;;;;12.67;73.79;100228.34;5090061;28;20136;-48
2022/11/11 05:59:36;;;;;;;16.27;13.90;;;;;;;12.50;75.92;100227.66;5090105;28;20505;-48
2022/11/11 06:02:03;;;;;;;21.02;14.07;;;;;;;12.61;76.30;100225.59;5090035;28;20032;-48
2022/11/11 06:04:28;;;;;;;24.27;13.73;;;;;;;13.06;76.34;100229.19;5091414;28;20050;-47
2022/11/11 06:06:54;;;;;;;16.88;15.00;;;;;;;13.52;73.93;100223.81;5089954;28;20564;-48
2022/11/11 06:09:20;;;;;;;81.10;59.15;;;;;;;13.21;72.37;100227.41;5091338;28;20035;-48
2022/11/11 06:11:46;;;;;;;31.02;19.70;;;;;;;12.89;73.09;100226.69;5092204;28;20401;-48
2022/11/11 06:14:11;;;;;;;21.42;16.08;;;;;;;12.69;73.65;100230.81;5093719;28;20028;-48
2022/11/11 06:16:40;;;;;;;18.73;13.20;;;;;;;12.77;74.38;100228.09;5093706;28;20020;-48
2022/11/11 06:19:06;;;;;;;16.55;13.32;;;;;;;12.93;74.16;100237.69;5095182;28;20050;-48
2022/11/11 06:21:55;;;;;;;17.58;14.77;;;;;;;12.99;73.23;100235.16;5093531;28;20095;-48
2022/11/11 06:24:17;;;;;;;15.93;13.95;;;;;;;12.85;72.71;100237.78;5094520;28;20113;-48
2022/11/11 06:26:42;;;;;;;17.73;14.00;;;;;;;12.64;72.89;100233.16;5094833;28;20028;-48
2022/11/11 06:29:08;;;;;;;17.27;14.48;;;;;;;12.53;73.63;100232.53;5093335;28;20026;-48
2022/11/11 06:31:34;;;;;;;22.38;15.27;;;;;;;12.39;73.83;100226.25;5094722;28;20020;-47
2022/11/11 06:33:59;;;;;;;19.80;16.02;;;;;;;12.22;74.15;100223.88;5094935;28;20028;-48
2022/11/11 06:36:25;;;;;;;17.40;15.48;;;;;;;12.09;75.00;100219.16;5093308;28;20032;-47
2022/11/11 06:38:52;;;;;;;20.17;16.00;;;;;;;12.02;75.37;100219.03;5093290;28;20062;-48
2022/11/11 06:41:17;;;;;;;21.33;16.83;;;;;;;11.93;75.58;100225.31;5093203;28;20024;-48
2022/11/11 06:43:43;;;;;;;24.70;17.38;;;;;;;11.79;76.21;100221.53;5094713;28;20024;-48
2022/11/11 06:46:30;;;;;;;20.92;16.23;;;;;;;11.66;76.59;100221.28;5076324;28;20040;-48
2022/11/11 06:48:56;;;;;;;20.80;16.27;;;;;;;11.57;77.01;100225.75;5094424;28;20024;-48
2022/11/11 06:51:21;;;;;;;21.73;16.73;;;;;;;11.55;77.41;100233.81;5094365;28;20023;-48
2022/11/11 06:53:48;;;;;;;20.15;16.58;;;;;;;11.52;77.54;100228.88;5094612;28;20046;-48
2022/11/11 06:56:14;;;;;;;19.13;15.40;;;;;;;11.47;77.47;100225.94;5094225;28;20420;-48
2022/11/11 06:58:39;;;;;;;24.38;15.05;;;;;;;11.40;77.88;100231.03;5094491;28;20032;-48
2022/11/11 07:01:07;;;;;;;26.02;16.15;;;;;;;11.32;77.80;100233.66;5094093;28;20497;-48
2022/11/11 07:03:33;;;;;;;28.38;17.83;;;;;;;11.37;78.50;100241.06;5094170;28;20031;-48
2022/11/11 07:06:03;;;;;;;148.35;23.80;;;;;;;11.31;78.49;100239.94;5094047;28;20020;-48
2022/11/11 07:08:29;;;;;;;57.60;16.77;;;;;;;11.48;79.19;100237.25;5092626;28;20032;-48
2022/11/11 07:10:55;;;;;;;31.13;15.38;;;;;;;11.73;78.25;100243.25;5093951;28;20024;-48
2022/11/11 07:13:22;;;;;;;22.92;13.95;;;;;;;11.75;77.25;100246.53;5092620;28;20024;-48
2022/11/11 07:15:48;;;;;;;22.50;13.57;;;;;;;11.68;76.97;100249.03;5092541;28;20016;-48
2022/11/11 07:18:13;;;;;;;67.63;17.27;;;;;;;11.66;76.87;100237.88;5093779;28;20116;-48
2022/11/11 07:20:39;;;;;;;188.73;22.83;;;;;;;11.68;77.00;100248.22;5093757;28;20115;-48
2022/11/11 07:23:05;;;;;;;158.23;21.05;;;;;;;11.86;77.05;100245.38;5090952;28;20044;-48
2022/11/11 07:25:31;;;;;;;65.15;15.18;;;;;;;12.03;76.12;100256.69;5093660;28;20077;-48
2022/11/11 07:27:57;;;;;;;43.60;14.73;;;;;;;12.04;75.37;100251.25;5093538;28;20107;-48
2022/11/11 07:30:23;;;;;;;35.80;13.85;;;;;;;11.96;75.31;100251.28;5092226;28;20020;-48
2022/11/11 07:32:51;;;;;;;26.55;13.60;;;;;;;11.93;75.09;100256.88;5093500;28;20046;-47
2022/11/11 07:35:18;;;;;;;29.95;14.10;;;;;;;12.06;75.91;100254.53;5093429;28;20016;-48
2022/11/11 07:37:45;;;;;;;35.90;13.85;;;;;;;12.39;75.53;100257.00;5092251;28;20032;-48
2022/11/11 07:40:13;;;;;;;15.70;11.48;;;;;;;12.76;74.78;100261.53;5093303;28;20031;-48
2022/11/11 07:42:40;;;;;;;18.15;12.85;;;;;;;13.35;73.04;100263.56;5092025;28;20061;-48
2022/11/11 07:45:07;;;;;;;14.68;12.23;;;;;;;13.63;71.29;100264.78;5091915;28;20107;-48
2022/11/11 07:47:36;;;;;;;13.88;11.20;;;;;;;13.68;70.61;100262.41;5091811;28;20024;-48
2022/11/11 07:50:03;;;;;;;15.95;11.52;;;;;;;13.96;70.55;100263.41;5093154;28;20394;-48
2022/11/11 07:52:29;;;;;;;16.02;10.48;;;;;;;14.94;69.41;100260.44;5091847;28;20032;-47
2022/11/11 07:54:55;;;;;;;18.35;12.85;;;;;;;15.67;65.98;100266.25;5091798;28;20027;-47
2022/11/11 07:57:21;;;;;;;44.33;14.00;;;;;;;15.52;64.33;100266.38;5092989;28;20372;-48
2022/11/11 07:59:46;;;;;;;14.45;12.68;;;;;;;14.96;65.09;100269.78;5092989;28;20017;-48
2022/11/11 08:02:13;;;;;;;13.98;12.27;;;;;;;14.79;66.41;100271.09;5091730;28;20028;-48
2022/11/11 08:04:39;;;;;;;16.48;11.82;;;;;;;14.97;64.99;100270.63;5092873;28;20040;-48
2022/11/11 08:07:06;;;;;;;21.35;12.07;;;;;;;15.06;65.50;100266.84;5093032;28;20375;-48
2022/11/11 08:09:31;;;;;;;15.60;13.23;;;;;;;15.18;64.80;100267.94;5074730;28;20466;-48
2022/11/11 08:14:41;;;;;;;16.00;11.07;;;;;;;15.72;63.27;100257.75;5092780;28;20093;-48
2022/11/11 08:17:07;;;;;;;15.48;10.63;;;;;;;16.92;60.97;100258.16;5092558;28;20059;-48
2022/11/11 08:19:32;;;;;;;15.65;11.80;;;;;;;18.03;58.61;100251.28;5091362;28;20035;-48
2022/11/11 08:21:58;;;;;;;14.55;12.52;;;;;;;18.60;54.90;100243.44;5092350;28;20028;-49
2022/11/11 08:24:24;;;;;;;18.00;11.55;;;;;;;18.59;54.64;100249.78;5091203;28;20055;-46
2022/11/11 08:26:49;;;;;;;11.63;10.35;;;;;;;18.78;53.85;100254.16;5091206;28;20043;-46
2022/11/11 08:29:15;;;;;;;16.70;12.43;;;;;;;18.67;53.44;100242.38;5092315;28;20035;-46
2022/11/11 08:31:41;;;;;;;17.52;13.07;;;;;;;18.95;53.32;100242.00;5091106;28;20027;-46
2022/11/11 08:34:06;;;;;;;17.08;12.98;;;;;;;19.84;50.99;100240.94;5092042;28;20020;-46
2022/11/11 08:36:32;;;;;;;13.88;12.38;;;;;;;20.31;50.36;100230.53;5092332;28;20020;-46
2022/11/11 08:38:58;;;;;;;13.18;11.73;;;;;;;20.91;48.17;100230.47;5092293;28;20049;-46
2022/11/11 08:41:24;;;;;;;15.70;11.00;;;;;;;21.49;47.28;100238.72;5092256;28;20547;-46
2022/11/11 08:43:54;;;;;;;16.55;12.10;;;;;;;21.83;45.74;100230.88;5092253;28;20035;-46
2022/11/11 08:46:20;;;;;;;14.27;10.45;;;;;;;22.24;45.10;100237.06;5092126;28;20050;-46
2022/11/11 08:48:46;;;;;;;16.10;10.38;;;;;;;22.24;43.73;100229.06;5092091;28;20024;-46
2022/11/11 08:51:12;;;;;;;25.98;10.20;;;;;;;22.19;44.63;100239.59;5092052;28;20555;-46
2022/11/11 08:53:38;;;;;;;30.65;9.50;;;;;;;22.70;44.41;100233.34;5090769;28;20121;-46
2022/11/11 08:56:04;;;;;;;15.02;9.00;;;;;;;23.49;43.31;100237.75;5092071;28;20024;-46
2022/11/11 08:58:30;;;;;;;10.88;9.13;;;;;;;23.98;40.70;100238.91;5092094;28;20028;-46
2022/11/11 09:00:56;;;;;;;12.35;8.55;;;;;;;24.40;40.17;100249.03;5091981;28;20387;-46
2022/11/11 09:03:22;;;;;;;14.18;9.15;;;;;;;24.66;39.93;100244.75;5090701;28;20073;-46
2022/11/11 09:05:48;;;;;;;16.77;8.57;;;;;;;24.63;39.99;100242.56;5092018;28;20023;-46
2022/11/11 09:08:13;;;;;;;13.63;8.02;;;;;;;24.55;39.90;100251.06;5091819;28;20031;-47
2022/11/11 09:10:39;;;;;;;13.40;8.25;;;;;;;24.66;38.86;100250.91;5092106;28;20478;-46
2022/11/11 09:13:05;;;;;;;8.75;6.70;;;;;;;24.70;38.65;100245.84;5090567;28;20034;-47
2022/11/11 09:15:32;;;;;;;11.88;7.05;;;;;;;24.65;38.34;100251.16;5091823;28;20059;-47
2022/11/11 09:17:58;;;;;;;8.80;7.07;;;;;;;24.43;38.64;100237.81;5092027;28;20075;-46
2022/11/11 09:20:27;;;;;;;23.25;9.98;;;;;;;24.97;37.92;100244.97;5092054;28;20039;-47
2022/11/11 09:22:53;;;;;;;15.43;9.80;;;;;;;25.41;37.27;100250.13;5091563;28;20048;-46
2022/11/11 09:25:19;;;;;;;11.27;9.88;;;;;;;25.69;37.31;100248.94;5091669;28;20020;-47
2022/11/11 09:27:56;;;;;;;22.35;11.73;;;;;;;25.74;37.31;100248.97;5091665;28;20035;-47
2022/11/11 09:30:23;;;;;;;10.25;8.38;;;;;;;26.04;36.58;100253.69;5091743;28;20035;-47
2022/11/11 09:32:49;;;;;;;14.48;8.98;;;;;;;26.34;36.51;100251.31;5090392;28;20052;-47
2022/11/11 09:35:14;;;;;;;13.73;8.80;;;;;;;26.49;36.46;100252.16;5091615;28;20501;-47
2022/11/11 09:37:40;;;;;;;15.10;9.15;;;;;;;26.72;35.67;100254.63;5091637;28;20031;-47
2022/11/11 09:40:08;;;;;;;11.68;8.70;;;;;;;27.34;35.10;100255.41;5091870;28;20024;-47
2022/11/11 09:42:45;;;;;;;9.27;7.93;;;;;;;27.84;34.04;100249.03;5091547;28;20016;-47
2022/11/11 09:45:58;;;;;;;12.75;8.60;;;;;;;28.29;34.18;100257.16;5090219;28;20126;-47
2022/11/11 09:48:49;;;;;;;22.80;9.13;;;;;;;28.40;33.57;100249.84;5016462;28;20076;-47
2022/11/11 09:51:22;;;;;;;10.98;8.32;;;;;;;28.39;32.67;100257.13;5033164;28;20033;-47
2022/11/11 09:53:57;;;;;;;9.05;8.05;;;;;;;28.03;33.21;100259.22;5033030;28;20071;-47
2022/11/11 09:56:25;;;;;;;9.43;8.15;;;;;;;27.93;33.38;100261.97;5016356;28;20081;-47
2022/11/11 09:59:02;;;;;;;12.20;7.68;;;;;;;27.32;34.08;100261.06;5032899;28;20033;-47
2022/11/11 10:01:36;;;;;;;11.52;7.93;;;;;;;27.27;35.00;100263.78;5016350;28;20108;-47
2022/11/11 10:04:22;;;;;;;13.63;7.05;;;;;;;27.41;34.50;100255.94;4999986;28;20048;-47
2022/11/11 10:06:52;;;;;;;17.02;7.28;;;;;;;27.56;34.18;100261.28;5032831;28;20038;-47
2022/11/11 10:09:30;;;;;;;10.77;7.40;;;;;;;27.82;33.49;100253.88;5032731;28;20148;-47
2022/11/11 10:12:11;;;;;;;11.07;6.72;;;;;;;28.49;33.12;100257.06;5032769;28;20467;-47
2022/11/11 10:14:49;;;;;;;16.73;6.32;;;;;;;29.11;32.05;100251.19;5032624;28;20072;-47
2022/11/11 10:17:36;;;;;;;12.50;7.10;;;;;;;29.33;31.70;100247.19;5032603;28;20064;-47
2022/11/11 10:20:20;;;;;;;16.55;6.65;;;;;;;29.75;31.13;100237.53;5032550;28;20105;-47
2022/11/11 10:22:50;;;;;;;34.33;7.32;;;;;;;29.80;29.98;100240.97;5078472;28;20109;-47
2022/11/11 10:25:19;;;;;;;7.38;5.68;;;;;;;29.38;30.15;100239.00;5094830;28;20036;-47
2022/11/11 10:27:49;;;;;;;8.25;4.78;;;;;;;29.36;29.70;100231.19;5094655;28;20517;-47
2022/11/11 10:30:25;;;;;;;11.52;5.90;;;;;;;29.08;29.95;100227.41;5094795;28;20027;-47
2022/11/11 10:33:01;;;;;;;13.13;6.03;;;;;;;28.24;31.55;100235.63;5094835;28;20035;-47
2022/11/11 10:35:29;;;;;;;13.90;5.30;;;;;;;27.47;33.03;100238.66;5094620;28;20040;-47
2022/11/11 10:38:04;;;;;;;8.93;4.32;;;;;;;26.90;33.59;100230.66;5093272;28;20024;-47
2022/11/11 10:40:49;;;;;;;;;;;;;;;26.46;35.40;100231.16;5095015;28;20454;-47
2022/11/11 10:43:27;;;;;;;10.88;4.18;;;;;;;26.43;34.96;100223.59;5094580;28;19957;-47
2022/11/11 10:46:05;;;;;;;6.50;3.78;;;;;;;27.05;34.77;100227.13;5094457;28;20021;-47
2022/11/11 10:48:57;;;;;;;8.90;5.15;;;;;;;27.77;33.41;100215.31;5093033;28;20035;-47
2022/11/11 10:51:28;;;;;;;9.68;4.30;;;;;;;27.84;32.50;100215.84;5094393;28;20028;-47
2022/11/11 10:54:18;;;;;;;6.43;3.53;;;;;;;27.52;32.88;100208.16;5094370;28;20032;-47
2022/11/11 10:57:08;;;;;;;6.38;2.40;;;;;;;27.52;31.58;100205.47;5092696;28;20486;-47
2022/11/11 10:59:45;;;;;;;3.35;1.48;;;;;;;26.83;30.50;100200.47;5094289;28;20394;-47
2022/11/11 11:02:22;;;;;;;4.85;2.28;;;;;;;25.64;32.83;100206.72;5092899;28;20490;-47
2022/11/11 11:05:10;;;;;;;2.15;1.83;;;;;;;25.38;33.48;100194.22;5094159;28;20059;-46
2022/11/11 11:07:44;;;;;;;5.80;1.90;;;;;;;25.02;34.96;100194.00;5092393;28;20123;-46
2022/11/11 11:10:17;;;;;;;9.35;4.32;;;;;;;25.43;33.67;100192.34;5094121;28;20042;-47
2022/11/11 11:13:04;;;;;;;7.75;2.47;;;;;;;25.15;33.59;100193.50;5094001;28;20387;-47
2022/11/11 11:15:32;;;;;;;2.85;1.92;;;;;;;24.60;34.24;100195.56;5093988;28;20032;-46
2022/11/11 11:18:10;;;;;;;2.72;1.75;;;;;;;24.02;35.76;100194.44;5094175;28;20559;-46
2022/11/11 11:20:35;;;;;;;5.55;2.00;;;;;;;23.53;36.18;100195.19;5093887;28;20082;-46
2022/11/11 11:23:01;;;;;;;9.88;2.10;;;;;;;23.01;37.36;100190.97;5093540;28;20072;-46
2022/11/11 11:25:30;;;;;;;4.13;1.77;;;;;;;22.49;38.49;100192.03;5092551;28;20020;-46
2022/11/11 11:28:13;;;;;;;3.88;1.83;;;;;;;22.47;38.47;100182.63;5093554;28;20023;-46
2022/11/11 11:30:39;;;;;;;5.20;2.00;;;;;;;22.34;38.71;100173.06;5093654;28;20051;-46
2022/11/11 11:33:09;;;;;;;4.35;1.90;;;;;;;22.28;38.64;100172.16;5092290;28;20020;-47
2022/11/11 11:35:43;;;;;;;2.33;1.70;;;;;;;22.03;39.22;100161.78;5092264;28;20024;-47
2022/11/11 11:38:11;;;;;;;3.47;1.88;;;;;;;21.93;39.42;100162.41;5093495;28;20020;-47
2022/11/11 11:40:55;;;;;;;7.85;2.00;;;;;;;21.85;40.09;100161.97;5093425;28;20024;-46
2022/11/11 11:43:49;;;;;;;7.47;2.47;;;;;;;22.22;39.38;100159.72;5092177;28;20035;-47
2022/11/11 11:46:19;;;;;;;10.30;2.17;;;;;;;22.56;38.47;100150.94;5093412;28;20481;-46
2022/11/11 11:49:25;;;;;;;7.25;1.75;;;;;;;22.63;38.43;100144.34;5093516;28;20024;-47
2022/11/11 11:52:06;;;;;;;8.23;2.05;;;;;;;22.50;38.93;100148.19;5093299;28;20024;-46
2022/11/11 11:55:09;;;;;;;3.50;1.85;;;;;;;22.19;40.15;100141.47;5091905;28;20054;-46
2022/11/11 11:57:40;;;;;;;7.28;3.13;;;;;;;22.01;40.40;100139.00;5091790;28;20016;-46
2022/11/11 12:00:25;;;;;;;3.50;2.22;;;;;;;21.88;41.12;100132.91;5091779;28;20028;-46
2022/11/11 12:03:11;;;;;;;7.97;2.67;;;;;;;22.00;40.98;100137.41;5093046;28;20040;-46
2022/11/11 12:05:59;;;;;;;4.20;2.70;;;;;;;22.56;40.28;100132.19;5093020;28;20027;-46
2022/11/11 12:08:46;;;;;;;10.02;3.05;;;;;;;22.59;40.12;100121.81;5091026;28;20020;-47
2022/11/11 12:11:38;;;;;;;4.63;2.58;;;;;;;22.72;39.82;100107.31;5091610;28;20035;-46
2022/11/11 12:14:17;;;;;;;5.25;2.25;;;;;;;23.03;38.98;100108.56;5092804;28;20409;-47
2022/11/11 12:16:43;;;;;;;3.55;2.40;;;;;;;;;;5091518;28;20497;-47
2022/11/11 12:19:31;;;;;;;4.70;3.42;;;;;;;23.42;39.01;100096.97;5091399;28;20036;-46
2022/11/11 12:22:21;;;;;;;4.60;2.75;;;;;;;24.08;38.98;100089.63;5092710;28;20054;-46
2022/11/11 12:25:11;;;;;;;4.80;2.90;;;;;;;24.66;37.53;100089.03;5091285;28;20040;-47
2022/11/11 12:28:02;;;;;;;6.10;2.63;;;;;;;25.01;36.97;100082.22;5092788;28;20509;-47
2022/11/11 12:30:32;;;;;;;5.60;2.40;;;;;;;25.10;36.06;100076.09;5091246;28;20024;-46
2022/11/11 12:33:14;;;;;;;2.92;2.28;;;;;;;24.94;35.69;100079.78;5092425;28;20571;-46
2022/11/11 12:35:55;;;;;;;2.85;2.35;;;;;;;24.60;36.51;100068.59;5092409;28;20044;-46
2022/11/11 12:38:31;;;;;;;4.75;2.05;;;;;;;24.42;37.04;100069.78;5091088;28;20027;-46